createdAt,value
2018-06-22T00:02:16.451Z,10.53
2018-06-22T00:04:43.762Z,4.67
2018-06-22T00:07:11.135Z,5.27
2018-06-22T00:09:38.451Z,5.30
2018-06-22T00:12:05.793Z,6.20
2018-06-22T00:14:33.171Z,8.87
2018-06-22T00:17:00.499Z,12.77
2018-06-22T00:19:28.026Z,16.13
2018-06-22T00:21:55.333Z,7.67
2018-06-22T00:24:22.818Z,6.20
2018-06-22T00:29:29.388Z,5.43
2018-06-22T00:31:56.852Z,6.93
2018-06-22T00:34:24.419Z,4.93
2018-06-22T00:36:51.882Z,7.50
2018-06-22T00:39:19.199Z,3.40
2018-06-22T00:41:46.692Z,10.23
2018-06-22T00:44:14.021Z,8.73
2018-06-22T00:46:41.422Z,10.57
2018-06-22T00:49:08.736Z,7.90
2018-06-22T00:51:36.179Z,7.57
2018-06-22T00:54:09.169Z,10.97
2018-06-22T00:56:36.468Z,8.03
2018-06-22T00:59:03.795Z,3.63
2018-06-22T01:01:31.238Z,6.77
2018-06-22T01:03:58.611Z,6.80
2018-06-22T01:06:25.982Z,7.83
2018-06-22T01:08:53.318Z,6.27
2018-06-22T01:11:20.958Z,9.03
2018-06-22T01:13:48.268Z,6.20
2018-06-22T01:16:15.575Z,7.07
2018-06-22T01:18:42.948Z,3.67
2018-06-22T01:21:10.243Z,7.10
2018-06-22T01:23:37.560Z,9.90
2018-06-22T01:26:05.204Z,7.20
2018-06-22T01:28:32.497Z,5.30
2018-06-22T01:30:59.798Z,6.37
2018-06-22T01:33:27.179Z,6.63
2018-06-22T01:35:54.507Z,6.50
2018-06-22T01:38:21.900Z,5.00
2018-06-22T01:40:49.239Z,7.63
2018-06-22T01:43:16.592Z,13.13
2018-06-22T01:45:43.938Z,6.50
2018-06-22T01:48:11.309Z,6.80
2018-06-22T01:50:38.631Z,12.10
2018-06-22T01:53:06.074Z,9.83
2018-06-22T01:55:33.441Z,4.80
2018-06-22T01:58:00.788Z,8.37
2018-06-22T02:00:28.140Z,13.10
2018-06-22T02:02:55.444Z,8.60
2018-06-22T02:05:22.776Z,6.30
2018-06-22T02:07:50.095Z,4.87
2018-06-22T02:10:17.481Z,10.20
2018-06-22T02:12:44.956Z,4.57
2018-06-22T02:15:12.292Z,12.53
2018-06-22T02:17:39.652Z,7.33
2018-06-22T02:20:07.003Z,5.40
2018-06-22T02:22:34.355Z,8.20
2018-06-22T02:25:01.695Z,11.53
2018-06-22T02:27:29.066Z,3.43
2018-06-22T02:29:56.363Z,9.23
2018-06-22T02:32:23.707Z,7.17
2018-06-22T02:34:51.151Z,9.27
2018-06-22T02:37:18.462Z,6.33
2018-06-22T02:39:45.782Z,12.97
2018-06-22T02:42:13.218Z,3.83
2018-06-22T02:44:40.646Z,6.57
2018-06-22T02:47:07.979Z,5.80
2018-06-22T02:49:35.430Z,8.87
2018-06-22T02:52:02.819Z,10.97
2018-06-22T02:54:30.144Z,5.00
2018-06-22T02:56:57.463Z,10.47
2018-06-22T02:59:24.862Z,12.90
2018-06-22T03:01:52.192Z,4.73
2018-06-22T03:04:19.508Z,10.63
2018-06-22T03:06:46.835Z,3.30
2018-06-22T03:09:14.160Z,10.20
2018-06-22T03:11:41.482Z,4.50
2018-06-22T03:14:08.775Z,5.53
2018-06-22T03:16:36.344Z,8.63
2018-06-22T03:19:03.696Z,13.97
2018-06-22T03:21:31.126Z,6.53
2018-06-22T03:23:58.450Z,7.90
2018-06-22T03:26:25.847Z,6.40
2018-06-22T03:28:53.317Z,10.57
2018-06-22T03:31:20.867Z,5.43
2018-06-22T03:33:48.439Z,6.67
2018-06-22T03:36:16.012Z,7.43
2018-06-22T03:38:43.346Z,6.13
2018-06-22T03:41:10.895Z,11.33
2018-06-22T03:43:38.297Z,10.40
2018-06-22T03:46:05.645Z,7.83
2018-06-22T03:48:32.973Z,7.00
2018-06-22T03:51:00.318Z,6.97
2018-06-22T03:53:27.659Z,5.97
2018-06-22T03:55:55.032Z,6.53
2018-06-22T03:58:22.341Z,8.30
2018-06-22T04:00:49.635Z,7.30
2018-06-22T04:03:16.961Z,10.33
2018-06-22T04:05:44.279Z,6.57
2018-06-22T04:08:11.633Z,11.30
2018-06-22T04:10:38.976Z,5.50
2018-06-22T04:13:06.300Z,7.20
2018-06-22T04:15:33.643Z,4.90
2018-06-22T04:18:00.956Z,4.67
2018-06-22T04:20:28.379Z,9.97
2018-06-22T04:22:55.672Z,5.20
2018-06-22T04:25:24.117Z,7.47
2018-06-22T04:27:52.013Z,6.17
2018-06-22T04:30:19.328Z,6.27
2018-06-22T04:32:47.347Z,7.03
2018-06-22T04:35:15.069Z,6.37
2018-06-22T04:37:42.397Z,4.00
2018-06-22T04:40:09.843Z,7.20
2018-06-22T04:42:37.303Z,4.87
2018-06-22T04:45:05.049Z,7.97
2018-06-22T04:47:32.622Z,6.80
2018-06-22T04:50:00.393Z,9.80
2018-06-22T04:52:27.728Z,8.60
2018-06-22T04:54:55.232Z,8.67
2018-06-22T04:57:22.778Z,11.20
2018-06-22T04:59:50.264Z,7.80
2018-06-22T05:02:17.647Z,6.47
2018-06-22T05:04:44.931Z,4.50
2018-06-22T05:07:12.255Z,12.63
2018-06-22T05:09:39.562Z,7.50
2018-06-22T05:12:07.003Z,6.13
2018-06-22T05:14:34.759Z,8.63
2018-06-22T05:17:02.087Z,7.93
2018-06-22T05:19:29.486Z,10.80
2018-06-22T05:21:56.831Z,4.40
2018-06-22T05:24:24.184Z,4.40
2018-06-22T05:26:51.538Z,8.47
2018-06-22T05:29:18.883Z,4.60
2018-06-22T05:31:46.151Z,5.93
2018-06-22T05:34:13.464Z,8.40
2018-06-22T05:36:40.889Z,13.50
2018-06-22T05:39:09.352Z,10.80
2018-06-22T05:41:36.963Z,12.80
2018-06-22T05:44:04.348Z,5.77
2018-06-22T05:46:31.661Z,11.93
2018-06-22T05:48:59.243Z,7.50
2018-06-22T05:51:26.750Z,9.90
2018-06-22T05:53:54.020Z,5.57
2018-06-22T05:56:21.567Z,9.77
2018-06-22T05:58:48.890Z,9.40
2018-06-22T06:01:16.187Z,15.97
2018-06-22T06:03:43.608Z,14.67
2018-06-22T06:06:11.172Z,13.80
2018-06-22T06:08:39.252Z,16.30
2018-06-22T06:11:06.650Z,24.63
2018-06-22T06:13:33.976Z,17.00
2018-06-22T06:16:01.316Z,20.90
2018-06-22T06:18:28.732Z,21.70
2018-06-22T06:20:56.061Z,21.03
2018-06-22T06:23:23.405Z,11.00
2018-06-22T06:25:50.892Z,15.53
2018-06-22T06:28:18.220Z,14.63
2018-06-22T06:30:45.635Z,17.17
2018-06-22T06:33:13.028Z,15.63
2018-06-22T06:35:40.635Z,17.70
2018-06-22T06:38:07.987Z,22.00
2018-06-22T06:40:35.407Z,23.07
2018-06-22T06:43:02.735Z,26.50
2018-06-22T06:45:30.080Z,30.90
2018-06-22T06:47:57.408Z,22.20
2018-06-22T06:50:24.967Z,14.10
2018-06-22T06:52:52.508Z,16.13
2018-06-22T06:55:19.959Z,18.80
2018-06-22T06:57:47.339Z,17.40
2018-06-22T07:00:15.027Z,19.67
2018-06-22T07:02:42.351Z,21.87
2018-06-22T07:05:09.730Z,17.73
2018-06-22T07:07:37.163Z,28.33
2018-06-22T07:10:04.684Z,12.27
2018-06-22T07:12:32.069Z,11.40
2018-06-22T07:14:59.414Z,9.70
2018-06-22T07:17:26.809Z,8.53
2018-06-22T07:19:54.112Z,13.90
2018-06-22T07:22:21.509Z,20.57
2018-06-22T07:24:48.842Z,12.20
2018-06-22T07:27:16.197Z,13.30
2018-06-22T07:29:43.558Z,10.33
2018-06-22T07:32:11.102Z,16.50
2018-06-22T07:34:38.380Z,15.67
2018-06-22T07:37:06.060Z,12.03
2018-06-22T07:39:33.460Z,9.70
2018-06-22T07:42:00.760Z,11.07
2018-06-22T07:44:28.232Z,15.00
2018-06-22T07:46:55.635Z,13.70
2018-06-22T07:49:23.035Z,9.33
2018-06-22T07:51:50.450Z,9.50
2018-06-22T07:54:18.100Z,10.90
2018-06-22T07:56:45.472Z,8.60
2018-06-22T07:59:12.785Z,10.63
2018-06-22T08:01:40.119Z,11.30
2018-06-22T08:04:07.456Z,9.93
2018-06-22T08:06:34.876Z,15.37
2018-06-22T08:09:02.229Z,12.30
2018-06-22T08:11:29.528Z,11.93
2018-06-22T08:13:56.971Z,15.80
2018-06-22T08:16:24.539Z,18.60
2018-06-22T08:18:52.028Z,13.23
2018-06-22T08:21:19.441Z,15.87
2018-06-22T08:23:46.791Z,15.60
2018-06-22T08:26:14.123Z,8.90
2018-06-22T08:28:41.482Z,11.23
2018-06-22T08:31:08.843Z,14.43
2018-06-22T08:33:36.167Z,9.27
2018-06-22T08:36:03.695Z,10.00
2018-06-22T08:38:30.998Z,10.40
2018-06-22T08:40:58.464Z,10.00
2018-06-22T08:43:25.839Z,12.07
2018-06-22T08:45:53.501Z,13.97
2018-06-22T08:48:20.835Z,9.13
2018-06-22T08:50:48.193Z,9.80
2018-06-22T08:53:15.547Z,9.97
2018-06-22T08:55:43.041Z,13.63
2018-06-22T08:58:10.339Z,15.73
2018-06-22T09:00:37.652Z,9.07
2018-06-22T09:03:04.988Z,9.47
2018-06-22T09:05:32.348Z,12.50
2018-06-22T09:07:59.955Z,9.30
2018-06-22T09:10:27.290Z,9.53
2018-06-22T09:12:54.695Z,15.80
2018-06-22T09:15:22.085Z,11.47
2018-06-22T09:17:49.625Z,13.70
2018-06-22T09:20:16.966Z,12.10
2018-06-22T09:22:44.296Z,10.73
2018-06-22T09:25:11.681Z,21.50
2018-06-22T09:27:39.044Z,13.10
2018-06-22T09:30:06.603Z,10.60
2018-06-22T09:32:34.330Z,10.80
2018-06-22T09:35:01.757Z,18.10
2018-06-22T09:37:29.128Z,11.60
2018-06-22T09:39:56.525Z,14.10
2018-06-22T09:42:23.872Z,9.33
2018-06-22T09:44:51.229Z,9.67
2018-06-22T09:47:18.654Z,12.60
2018-06-22T09:49:45.966Z,13.40
2018-06-22T09:52:13.375Z,16.63
2018-06-22T09:54:40.848Z,13.27
2018-06-22T09:57:08.236Z,17.33
2018-06-22T09:59:35.571Z,9.10
2018-06-22T10:02:02.939Z,12.60
2018-06-22T10:04:30.226Z,9.07
2018-06-22T10:06:57.629Z,13.60
2018-06-22T10:09:25.037Z,12.90
2018-06-22T10:11:52.413Z,6.47
2018-06-22T10:14:19.767Z,9.43
2018-06-22T10:16:47.132Z,11.40
2018-06-22T10:19:14.508Z,12.30
2018-06-22T10:21:41.852Z,15.53
2018-06-22T10:24:09.184Z,12.97
2018-06-22T10:26:36.586Z,9.53
2018-06-22T10:29:03.923Z,10.80
2018-06-22T10:31:31.273Z,10.90
2018-06-22T10:33:58.828Z,6.97
2018-06-22T10:36:26.292Z,7.97
2018-06-22T10:38:54.215Z,10.43
2018-06-22T10:41:21.580Z,6.20
2018-06-22T10:43:48.935Z,9.53
2018-06-22T10:46:16.263Z,8.77
2018-06-22T10:48:43.771Z,10.63
2018-06-22T10:51:11.319Z,12.03
2018-06-22T10:53:38.801Z,6.70
2018-06-22T10:56:06.104Z,6.00
2018-06-22T10:58:33.493Z,9.67
2018-06-22T11:01:00.834Z,7.97
2018-06-22T11:03:28.159Z,5.37
2018-06-22T11:05:55.497Z,12.20
2018-06-22T11:08:22.831Z,12.97
2018-06-22T11:10:50.174Z,8.63
2018-06-22T11:13:17.846Z,8.70
2018-06-22T11:15:45.196Z,12.73
2018-06-22T11:18:12.682Z,13.53
2018-06-22T11:20:40.268Z,9.43
2018-06-22T11:23:07.809Z,4.80
2018-06-22T11:25:35.222Z,8.27
2018-06-22T11:28:02.579Z,6.73
2018-06-22T11:30:29.920Z,10.30
2018-06-22T11:32:57.420Z,8.47
2018-06-22T11:35:24.803Z,11.67
2018-06-22T11:37:52.123Z,7.10
2018-06-22T11:40:19.731Z,9.77
2018-06-22T11:42:47.203Z,8.20
2018-06-22T11:45:14.697Z,10.10
2018-06-22T11:47:42.051Z,6.13
2018-06-22T11:50:09.355Z,11.60
2018-06-22T11:52:36.818Z,5.47
2018-06-22T11:55:04.464Z,4.10
2018-06-22T11:57:31.840Z,6.97
2018-06-22T11:59:59.195Z,10.00
2018-06-22T12:02:26.544Z,10.77
2018-06-22T12:04:54.302Z,6.00
2018-06-22T12:07:21.617Z,8.70
2018-06-22T12:09:48.999Z,11.17
2018-06-22T12:12:16.503Z,10.33
2018-06-22T12:14:43.826Z,8.33
2018-06-22T12:17:11.275Z,8.27
2018-06-22T12:19:38.628Z,14.77
2018-06-22T12:22:05.996Z,10.33
2018-06-22T12:24:33.468Z,9.37
2018-06-22T12:27:00.894Z,6.80
2018-06-22T12:29:28.226Z,7.80
2018-06-22T12:31:55.608Z,5.10
2018-06-22T12:34:22.970Z,5.23
2018-06-22T12:36:50.410Z,5.70
2018-06-22T12:39:17.781Z,8.00
2018-06-22T12:41:45.325Z,5.73
2018-06-22T12:44:12.699Z,8.07
2018-06-22T12:46:40.104Z,5.63
2018-06-22T12:49:07.681Z,11.70
2018-06-22T12:51:35.112Z,7.23
2018-06-22T12:54:02.512Z,6.07
2018-06-22T12:56:29.842Z,4.17
2018-06-22T12:58:57.170Z,4.80
2018-06-22T13:01:24.900Z,6.90
2018-06-22T13:03:52.227Z,11.53
2018-06-22T13:06:19.640Z,6.70
2018-06-22T13:08:47.051Z,3.00
2018-06-22T13:11:14.629Z,5.60
2018-06-22T13:13:42.271Z,4.10
2018-06-22T13:16:09.817Z,6.00
2018-06-22T13:18:37.199Z,2.43
2018-06-22T13:21:04.538Z,2.47
2018-06-22T13:23:31.880Z,4.80
2018-06-22T13:25:59.371Z,4.80
2018-06-22T13:28:26.702Z,3.67
2018-06-22T13:30:54.016Z,2.90
2018-06-22T13:33:21.362Z,4.43
2018-06-22T13:35:48.819Z,4.20
2018-06-22T13:38:16.155Z,4.57
2018-06-22T13:40:43.673Z,5.03
2018-06-22T13:43:11.072Z,6.00
2018-06-22T13:45:38.645Z,10.77
2018-06-22T13:48:06.247Z,4.00
2018-06-22T13:50:33.617Z,8.30
2018-06-22T13:53:00.996Z,10.43
2018-06-22T13:55:28.319Z,5.80
2018-06-22T13:57:55.751Z,7.20
2018-06-22T14:00:23.163Z,10.53
2018-06-22T14:02:50.604Z,10.00
2018-06-22T14:05:23.307Z,8.27
2018-06-22T14:07:50.625Z,6.80
2018-06-22T14:10:17.972Z,8.20
2018-06-22T14:12:45.440Z,6.40
2018-06-22T14:15:12.771Z,7.30
2018-06-22T14:17:40.137Z,8.90
2018-06-22T14:20:07.519Z,9.87
2018-06-22T14:22:35.073Z,13.80
2018-06-22T14:25:02.451Z,10.93
2018-06-22T14:27:29.887Z,7.10
2018-06-22T14:29:57.228Z,6.20
2018-06-22T14:32:24.571Z,8.20
2018-06-22T14:34:51.960Z,10.20
2018-06-22T14:37:19.275Z,8.90
2018-06-22T14:39:46.654Z,3.97
2018-06-22T14:42:14.010Z,6.17
2018-06-22T14:44:41.357Z,10.03
2018-06-22T14:47:08.693Z,6.00
2018-06-22T14:49:36.234Z,5.30
2018-06-22T14:52:03.647Z,6.63
2018-06-22T14:54:36.372Z,4.07
2018-06-22T14:57:09.181Z,1.80
2018-06-22T14:59:41.994Z,7.13
2018-06-22T15:02:14.645Z,3.63
2018-06-22T15:04:47.481Z,5.93
2018-06-22T15:07:20.222Z,5.60
2018-06-22T15:09:47.788Z,10.57
2018-06-22T15:12:15.191Z,6.97
2018-06-22T15:14:42.595Z,5.70
2018-06-22T15:17:12.595Z,3.57
2018-06-22T15:19:40.717Z,3.20
2018-06-22T15:22:08.888Z,3.97
2018-06-22T15:24:36.536Z,4.67
2018-06-22T15:27:03.892Z,5.70
2018-06-22T15:29:31.200Z,4.37
2018-06-22T15:31:58.772Z,8.30
2018-06-22T15:34:31.349Z,5.73
2018-06-22T15:37:04.133Z,5.77
2018-06-22T15:39:37.023Z,6.47
2018-06-22T15:42:09.664Z,4.00
2018-06-22T15:44:42.228Z,6.93
2018-06-22T15:47:15.034Z,7.53
2018-06-22T15:49:47.736Z,6.20
2018-06-22T15:52:20.628Z,7.13
2018-06-22T15:55:09.717Z,4.83
2018-06-22T15:57:37.080Z,4.70
2018-06-22T16:00:05.293Z,6.80
2018-06-22T16:02:38.067Z,8.90
2018-06-22T16:05:05.506Z,6.57
2018-06-22T16:07:32.864Z,6.60
2018-06-22T16:10:01.396Z,4.30
2018-06-22T16:12:32.864Z,3.20
2018-06-22T16:15:06.018Z,9.10
2018-06-22T16:17:39.184Z,4.70
2018-06-22T16:20:11.971Z,7.53
2018-06-22T16:22:44.990Z,5.30
2018-06-22T16:25:17.832Z,8.13
2018-06-22T16:27:47.937Z,9.80
2018-06-22T16:30:15.308Z,8.20
2018-06-22T16:32:42.716Z,12.07
2018-06-22T16:35:10.060Z,10.40
2018-06-22T16:37:37.418Z,4.23
2018-06-22T16:40:04.813Z,10.80
2018-06-22T16:42:32.183Z,6.20
2018-06-22T16:44:59.547Z,6.87
2018-06-22T16:47:26.906Z,4.13
2018-06-22T16:49:54.350Z,7.50
2018-06-22T16:52:21.792Z,12.30
2018-06-22T16:54:49.232Z,10.00
2018-06-22T16:57:16.802Z,9.83
2018-06-22T16:59:44.184Z,10.00
2018-06-22T17:02:11.762Z,7.93
2018-06-22T17:04:39.199Z,4.97
2018-06-22T17:07:11.960Z,6.33
2018-06-22T17:09:44.802Z,7.47
2018-06-22T17:12:17.533Z,8.00
2018-06-22T17:14:50.351Z,8.37
2018-06-22T17:17:23.193Z,5.43
2018-06-22T17:19:50.471Z,2.20
2018-06-22T17:22:17.865Z,6.30
2018-06-22T17:24:45.199Z,6.37
2018-06-22T17:27:12.599Z,7.17
2018-06-22T17:29:40.032Z,2.07
2018-06-22T17:32:07.445Z,3.60
2018-06-22T17:34:34.819Z,3.87
2018-06-22T17:37:02.259Z,4.27
2018-06-22T17:39:29.599Z,7.90
2018-06-22T17:41:56.965Z,11.87
2018-06-22T17:44:24.506Z,6.87
2018-06-22T17:46:52.021Z,5.30
2018-06-22T17:49:19.440Z,4.70
2018-06-22T17:51:46.824Z,8.53
2018-06-22T17:54:14.214Z,5.50
2018-06-22T17:56:41.882Z,9.07
2018-06-22T17:59:14.611Z,3.37
2018-06-22T18:01:47.339Z,5.60
2018-06-22T18:04:20.428Z,8.60
2018-06-22T18:06:53.194Z,8.20
2018-06-22T18:09:25.895Z,2.83
2018-06-22T18:11:58.932Z,6.07
2018-06-22T18:14:26.267Z,4.07
2018-06-22T18:16:54.014Z,4.47
2018-06-22T18:19:21.545Z,6.00
2018-06-22T18:21:48.947Z,7.60
2018-06-22T18:24:16.371Z,6.13
2018-06-22T18:26:43.763Z,5.40
2018-06-22T18:29:11.257Z,6.73
2018-06-22T18:31:38.778Z,5.40
2018-06-22T18:34:06.485Z,4.07
2018-06-22T18:36:33.983Z,4.97
2018-06-22T18:39:01.372Z,7.20
2018-06-22T18:41:29.010Z,7.27
2018-06-22T18:43:58.890Z,9.33
2018-06-22T18:46:26.962Z,6.17
2018-06-22T18:48:54.438Z,5.33
2018-06-22T18:51:21.858Z,7.13
2018-06-22T18:53:54.532Z,5.13
2018-06-22T18:56:27.354Z,7.50
2018-06-22T18:59:00.130Z,8.20
2018-06-22T19:01:32.846Z,5.10
2018-06-22T19:04:00.220Z,5.50
2018-06-22T19:06:27.592Z,4.43
2018-06-22T19:08:54.997Z,11.50
2018-06-22T19:11:22.412Z,8.37
2018-06-22T19:13:49.759Z,4.97
2018-06-22T19:16:17.224Z,6.43
2018-06-22T19:18:44.604Z,9.60
2018-06-22T19:21:12.049Z,6.20
2018-06-22T19:23:39.475Z,6.57
2018-06-22T19:26:07.387Z,3.40
2018-06-22T19:28:34.757Z,8.90
2018-06-22T19:31:02.140Z,6.60
2018-06-22T19:33:29.527Z,7.13
2018-06-22T19:35:56.878Z,6.10
2018-06-22T19:38:24.338Z,8.47
2018-06-22T19:40:51.695Z,8.03
2018-06-22T19:43:24.377Z,6.70
2018-06-22T19:45:57.147Z,14.00
2018-06-22T19:48:26.737Z,12.33
2018-06-22T19:50:59.452Z,7.10
2018-06-22T19:53:34.348Z,6.23
2018-06-22T19:56:01.749Z,6.57
2018-06-22T19:58:29.182Z,6.17
2018-06-22T20:00:56.519Z,8.37
2018-06-22T20:03:24.057Z,8.33
2018-06-22T20:05:51.460Z,9.63
2018-06-22T20:08:18.811Z,9.20
2018-06-22T20:10:46.189Z,9.67
2018-06-22T20:13:13.600Z,11.90
2018-06-22T20:15:40.999Z,13.53
2018-06-22T20:18:08.380Z,4.90
2018-06-22T20:20:35.761Z,12.83
2018-06-22T20:23:03.215Z,11.80
2018-06-22T20:25:35.897Z,9.60
2018-06-22T20:28:03.297Z,10.47
2018-06-22T20:30:30.641Z,16.67
2018-06-22T20:32:58.060Z,10.67
2018-06-22T20:35:30.892Z,8.60
2018-06-22T20:38:03.621Z,10.07
2018-06-22T20:40:36.507Z,10.37
2018-06-22T20:43:09.228Z,8.33
2018-06-22T20:45:39.955Z,13.43
2018-06-22T20:48:12.724Z,11.07
2018-06-22T20:50:40.041Z,11.17
2018-06-22T20:53:07.988Z,12.00
2018-06-22T20:55:35.631Z,9.30
2018-06-22T20:58:03.635Z,11.60
2018-06-22T21:00:30.986Z,12.20
2018-06-22T21:02:58.687Z,13.33
2018-06-22T21:05:26.042Z,10.53
2018-06-22T21:07:54.587Z,10.10
2018-06-22T21:10:21.972Z,11.77
2018-06-22T21:12:49.549Z,17.23
2018-06-22T21:15:16.917Z,21.07
2018-06-22T21:17:44.220Z,11.00
2018-06-22T21:20:11.560Z,11.47
2018-06-22T21:22:38.941Z,7.37
2018-06-22T21:25:06.270Z,12.53
2018-06-22T21:27:38.990Z,10.77
2018-06-22T21:30:11.646Z,10.70
2018-06-22T21:32:44.590Z,13.40
2018-06-22T21:35:17.445Z,10.80
2018-06-22T21:37:50.298Z,7.40
2018-06-22T21:40:17.699Z,11.63
2018-06-22T21:42:45.112Z,11.70
2018-06-22T21:45:12.421Z,9.40
2018-06-22T21:47:39.742Z,11.03
2018-06-22T21:50:07.115Z,7.90
2018-06-22T21:52:34.539Z,12.07
2018-06-22T21:55:02.245Z,17.33
2018-06-22T21:57:29.652Z,10.57
2018-06-22T21:59:56.993Z,13.17
2018-06-22T22:02:24.351Z,11.63
2018-06-22T22:04:51.792Z,17.47
2018-06-22T22:07:19.369Z,14.70
2018-06-22T22:09:46.860Z,15.83
2018-06-22T22:12:14.426Z,11.33
2018-06-22T22:14:42.071Z,13.53
2018-06-22T22:17:09.615Z,16.27
2018-06-22T22:19:37.610Z,11.10
2018-06-22T22:22:05.039Z,13.47
2018-06-22T22:24:32.474Z,25.37
2018-06-22T22:26:59.855Z,17.17
2018-06-22T22:29:27.200Z,9.03
2018-06-22T22:31:54.740Z,11.50
2018-06-22T22:34:22.072Z,13.20
2018-06-22T22:36:49.413Z,8.33
2018-06-22T22:39:16.792Z,9.37
2018-06-22T22:41:44.179Z,12.90
2018-06-22T22:44:11.515Z,14.13
2018-06-22T22:46:39.364Z,13.50
2018-06-22T22:49:06.693Z,13.23
2018-06-22T22:51:34.217Z,14.47
2018-06-22T22:54:01.604Z,11.33
2018-06-22T22:56:28.912Z,13.40
2018-06-22T22:58:56.582Z,13.43
2018-06-22T23:01:23.876Z,12.70
2018-06-22T23:03:51.367Z,13.40
2018-06-22T23:06:18.711Z,17.67
2018-06-22T23:08:46.192Z,14.67
2018-06-22T23:11:13.589Z,21.73
2018-06-22T23:13:40.911Z,17.40
2018-06-22T23:16:08.311Z,14.50
2018-06-22T23:18:35.705Z,15.77
2018-06-22T23:21:03.130Z,11.07
2018-06-22T23:23:32.468Z,18.47
2018-06-22T23:26:00.208Z,7.63
2018-06-22T23:28:27.668Z,17.93
2018-06-22T23:30:55.036Z,14.53
2018-06-22T23:33:22.682Z,26.80
2018-06-22T23:35:50.112Z,13.23
2018-06-22T23:38:17.461Z,14.97
2018-06-22T23:40:44.760Z,12.10
2018-06-22T23:43:12.205Z,10.27
2018-06-22T23:45:39.559Z,10.20
2018-06-22T23:48:07.332Z,17.60
2018-06-22T23:50:34.763Z,20.27
2018-06-22T23:53:02.099Z,13.83
2018-06-22T23:55:29.397Z,16.57
2018-06-22T23:57:56.742Z,15.43
